sensor_id;sensor_type;location;lat;lon;timestamp;P1;durP1;ratioP1;P2;durP2;ratioP2
34988;SDS011;21192;40.182;44.516;2023-07-29T00:00:53;7.30;;;1.20;;
34988;SDS011;21192;40.182;44.516;2023-07-29T00:03:20;7.60;;;1.63;;
34988;SDS011;21192;40.182;44.516;2023-07-29T00:05:47;10.10;;;1.15;;
34988;SDS011;21192;40.182;44.516;2023-07-29T00:08:13;4.28;;;1.25;;
34988;SDS011;21192;40.182;44.516;2023-07-29T00:10:39;2.83;;;1.10;;
34988;SDS011;21192;40.182;44.516;2023-07-29T00:13:05;7.95;;;1.35;;
34988;SDS011;21192;40.182;44.516;2023-07-29T00:15:31;7.30;;;1.38;;
34988;SDS011;21192;40.182;44.516;2023-07-29T00:17:57;9.70;;;1.77;;
34988;SDS011;21192;40.182;44.516;2023-07-29T00:20:23;6.70;;;1.30;;
34988;SDS011;21192;40.182;44.516;2023-07-29T00:22:49;6.68;;;1.30;;
34988;SDS011;21192;40.182;44.516;2023-07-29T00:25:17;4.90;;;1.10;;
34988;SDS011;21192;40.182;44.516;2023-07-29T00:27:43;7.95;;;0.98;;
34988;SDS011;21192;40.182;44.516;2023-07-29T00:30:09;5.82;;;1.45;;
34988;SDS011;21192;40.182;44.516;2023-07-29T00:32:35;8.65;;;1.40;;
34988;SDS011;21192;40.182;44.516;2023-07-29T00:35:02;9.07;;;1.67;;
34988;SDS011;21192;40.182;44.516;2023-07-29T00:37:28;6.95;;;1.48;;
34988;SDS011;21192;40.182;44.516;2023-07-29T00:39:55;5.63;;;1.35;;
34988;SDS011;21192;40.182;44.516;2023-07-29T00:42:21;8.30;;;1.30;;
34988;SDS011;21192;40.182;44.516;2023-07-29T00:44:47;6.75;;;1.27;;
34988;SDS011;21192;40.182;44.516;2023-07-29T00:47:13;7.20;;;1.40;;
34988;SDS011;21192;40.182;44.516;2023-07-29T00:49:41;3.42;;;1.33;;
34988;SDS011;21192;40.182;44.516;2023-07-29T00:52:08;4.80;;;1.13;;
34988;SDS011;21192;40.182;44.516;2023-07-29T00:54:37;4.38;;;1.05;;
34988;SDS011;21192;40.182;44.516;2023-07-29T00:57:09;5.88;;;1.00;;
34988;SDS011;21192;40.182;44.516;2023-07-29T00:59:36;7.07;;;1.55;;
34988;SDS011;21192;40.182;44.516;2023-07-29T01:02:03;4.55;;;0.80;;
34988;SDS011;21192;40.182;44.516;2023-07-29T01:04:29;6.32;;;0.82;;
34988;SDS011;21192;40.182;44.516;2023-07-29T01:06:58;2.75;;;0.73;;
34988;SDS011;21192;40.182;44.516;2023-07-29T01:17:59;3.60;;;1.00;;
34988;SDS011;21192;40.182;44.516;2023-07-29T01:20:29;4.78;;;1.00;;
34988;SDS011;21192;40.182;44.516;2023-07-29T01:22:59;6.80;;;1.20;;
34988;SDS011;21192;40.182;44.516;2023-07-29T01:25:24;5.30;;;1.30;;
34988;SDS011;21192;40.182;44.516;2023-07-29T01:27:51;3.50;;;1.25;;
34988;SDS011;21192;40.182;44.516;2023-07-29T01:30:17;3.42;;;0.95;;
34988;SDS011;21192;40.182;44.516;2023-07-29T01:32:58;5.68;;;1.48;;
34988;SDS011;21192;40.182;44.516;2023-07-29T01:35:35;4.18;;;1.25;;
34988;SDS011;21192;40.182;44.516;2023-07-29T01:38:14;4.35;;;1.25;;
34988;SDS011;21192;40.182;44.516;2023-07-29T01:40:46;5.82;;;1.48;;
34988;SDS011;21192;40.182;44.516;2023-07-29T01:43:13;4.60;;;1.30;;
34988;SDS011;21192;40.182;44.516;2023-07-29T01:45:39;6.40;;;1.25;;
34988;SDS011;21192;40.182;44.516;2023-07-29T01:48:06;11.18;;;1.58;;
34988;SDS011;21192;40.182;44.516;2023-07-29T01:50:32;9.75;;;1.63;;
34988;SDS011;21192;40.182;44.516;2023-07-29T01:52:59;5.07;;;0.98;;
34988;SDS011;21192;40.182;44.516;2023-07-29T01:55:24;4.90;;;1.20;;
34988;SDS011;21192;40.182;44.516;2023-07-29T01:57:50;4.65;;;1.30;;
34988;SDS011;21192;40.182;44.516;2023-07-29T02:00:17;4.57;;;1.10;;
34988;SDS011;21192;40.182;44.516;2023-07-29T02:02:44;5.80;;;1.48;;
34988;SDS011;21192;40.182;44.516;2023-07-29T02:05:10;4.07;;;1.10;;
34988;SDS011;21192;40.182;44.516;2023-07-29T02:07:36;6.63;;;1.30;;
34988;SDS011;21192;40.182;44.516;2023-07-29T02:10:02;7.07;;;1.05;;
34988;SDS011;21192;40.182;44.516;2023-07-29T02:12:28;7.28;;;1.20;;
34988;SDS011;21192;40.182;44.516;2023-07-29T02:14:53;7.22;;;1.20;;
34988;SDS011;21192;40.182;44.516;2023-07-29T02:17:19;5.90;;;1.30;;
34988;SDS011;21192;40.182;44.516;2023-07-29T02:19:46;3.92;;;1.10;;
34988;SDS011;21192;40.182;44.516;2023-07-29T02:22:16;12.13;;;1.40;;
34988;SDS011;21192;40.182;44.516;2023-07-29T02:24:42;6.90;;;1.30;;
34988;SDS011;21192;40.182;44.516;2023-07-29T02:27:08;4.43;;;1.30;;
34988;SDS011;21192;40.182;44.516;2023-07-29T02:29:34;8.32;;;1.00;;
34988;SDS011;21192;40.182;44.516;2023-07-29T02:32:00;5.75;;;1.08;;
34988;SDS011;21192;40.182;44.516;2023-07-29T02:34:26;5.38;;;0.68;;
34988;SDS011;21192;40.182;44.516;2023-07-29T02:36:52;9.88;;;1.42;;
34988;SDS011;21192;40.182;44.516;2023-07-29T02:39:18;3.45;;;0.68;;
34988;SDS011;21192;40.182;44.516;2023-07-29T02:41:44;6.50;;;1.05;;
34988;SDS011;21192;40.182;44.516;2023-07-29T02:44:09;4.38;;;1.00;;
34988;SDS011;21192;40.182;44.516;2023-07-29T02:46:35;7.57;;;1.00;;
34988;SDS011;21192;40.182;44.516;2023-07-29T02:49:01;4.75;;;0.90;;
34988;SDS011;21192;40.182;44.516;2023-07-29T02:51:29;5.07;;;0.90;;
34988;SDS011;21192;40.182;44.516;2023-07-29T02:53:55;5.63;;;1.00;;
34988;SDS011;21192;40.182;44.516;2023-07-29T02:56:21;6.90;;;1.10;;
34988;SDS011;21192;40.182;44.516;2023-07-29T02:58:47;3.13;;;0.77;;
34988;SDS011;21192;40.182;44.516;2023-07-29T03:01:12;4.90;;;0.88;;
34988;SDS011;21192;40.182;44.516;2023-07-29T03:03:39;4.97;;;0.80;;
34988;SDS011;21192;40.182;44.516;2023-07-29T03:06:08;4.28;;;0.80;;
34988;SDS011;21192;40.182;44.516;2023-07-29T03:08:35;3.75;;;1.25;;
34988;SDS011;21192;40.182;44.516;2023-07-29T03:11:05;2.08;;;0.80;;
34988;SDS011;21192;40.182;44.516;2023-07-29T03:13:32;5.55;;;0.98;;
34988;SDS011;21192;40.182;44.516;2023-07-29T03:16:05;3.53;;;0.73;;
34988;SDS011;21192;40.182;44.516;2023-07-29T03:18:41;3.67;;;0.73;;
34988;SDS011;21192;40.182;44.516;2023-07-29T03:21:08;8.82;;;0.85;;
34988;SDS011;21192;40.182;44.516;2023-07-29T03:23:35;4.72;;;1.00;;
34988;SDS011;21192;40.182;44.516;2023-07-29T03:26:02;5.07;;;0.90;;
34988;SDS011;21192;40.182;44.516;2023-07-29T03:28:35;3.97;;;0.95;;
34988;SDS011;21192;40.182;44.516;2023-07-29T03:31:04;4.07;;;0.90;;
34988;SDS011;21192;40.182;44.516;2023-07-29T03:33:30;7.50;;;1.10;;
34988;SDS011;21192;40.182;44.516;2023-07-29T03:35:56;3.65;;;0.90;;
34988;SDS011;21192;40.182;44.516;2023-07-29T03:38:22;8.77;;;1.40;;
34988;SDS011;21192;40.182;44.516;2023-07-29T03:40:48;7.20;;;1.42;;
34988;SDS011;21192;40.182;44.516;2023-07-29T03:43:14;5.47;;;1.50;;
34988;SDS011;21192;40.182;44.516;2023-07-29T03:45:40;11.63;;;1.73;;
34988;SDS011;21192;40.182;44.516;2023-07-29T03:48:06;10.25;;;1.92;;
34988;SDS011;21192;40.182;44.516;2023-07-29T03:50:33;8.25;;;2.00;;
34988;SDS011;21192;40.182;44.516;2023-07-29T03:53:00;7.50;;;2.35;;
34988;SDS011;21192;40.182;44.516;2023-07-29T03:55:30;7.40;;;2.20;;
34988;SDS011;21192;40.182;44.516;2023-07-29T03:57:59;12.02;;;2.47;;
34988;SDS011;21192;40.182;44.516;2023-07-29T04:00:26;13.25;;;2.30;;
34988;SDS011;21192;40.182;44.516;2023-07-29T04:02:52;16.55;;;2.92;;
34988;SDS011;21192;40.182;44.516;2023-07-29T04:05:18;12.13;;;3.38;;
34988;SDS011;21192;40.182;44.516;2023-07-29T04:07:44;19.40;;;3.60;;
34988;SDS011;21192;40.182;44.516;2023-07-29T04:10:10;11.50;;;3.15;;
34988;SDS011;21192;40.182;44.516;2023-07-29T04:12:36;16.85;;;3.45;;
34988;SDS011;21192;40.182;44.516;2023-07-29T04:15:02;14.25;;;3.53;;
34988;SDS011;21192;40.182;44.516;2023-07-29T04:17:28;13.20;;;2.30;;
34988;SDS011;21192;40.182;44.516;2023-07-29T04:19:54;9.65;;;1.92;;
34988;SDS011;21192;40.182;44.516;2023-07-29T04:22:20;6.10;;;2.05;;
34988;SDS011;21192;40.182;44.516;2023-07-29T04:24:46;5.55;;;1.48;;
34988;SDS011;21192;40.182;44.516;2023-07-29T04:27:12;9.32;;;1.83;;
34988;SDS011;21192;40.182;44.516;2023-07-29T04:29:37;5.53;;;1.70;;
34988;SDS011;21192;40.182;44.516;2023-07-29T04:32:03;6.38;;;1.70;;
34988;SDS011;21192;40.182;44.516;2023-07-29T04:34:30;7.32;;;1.83;;
34988;SDS011;21192;40.182;44.516;2023-07-29T04:36:56;13.40;;;1.77;;
34988;SDS011;21192;40.182;44.516;2023-07-29T04:39:22;5.97;;;1.85;;
34988;SDS011;21192;40.182;44.516;2023-07-29T04:41:48;16.58;;;2.33;;
34988;SDS011;21192;40.182;44.516;2023-07-29T04:44:14;9.00;;;2.00;;
34988;SDS011;21192;40.182;44.516;2023-07-29T04:46:39;7.78;;;1.65;;
34988;SDS011;21192;40.182;44.516;2023-07-29T04:49:05;5.07;;;1.90;;
34988;SDS011;21192;40.182;44.516;2023-07-29T04:51:31;12.90;;;2.63;;
34988;SDS011;21192;40.182;44.516;2023-07-29T04:53:57;11.98;;;1.80;;
34988;SDS011;21192;40.182;44.516;2023-07-29T04:56:24;11.02;;;2.00;;
34988;SDS011;21192;40.182;44.516;2023-07-29T04:58:50;7.40;;;2.30;;
34988;SDS011;21192;40.182;44.516;2023-07-29T05:01:15;6.03;;;2.00;;
34988;SDS011;21192;40.182;44.516;2023-07-29T05:03:41;6.65;;;1.60;;
34988;SDS011;21192;40.182;44.516;2023-07-29T05:06:07;30.92;;;3.20;;
34988;SDS011;21192;40.182;44.516;2023-07-29T05:08:33;12.20;;;1.85;;
34988;SDS011;21192;40.182;44.516;2023-07-29T05:10:59;11.27;;;2.35;;
34988;SDS011;21192;40.182;44.516;2023-07-29T05:13:25;7.75;;;2.42;;
34988;SDS011;21192;40.182;44.516;2023-07-29T05:15:51;16.10;;;2.55;;
34988;SDS011;21192;40.182;44.516;2023-07-29T05:18:17;12.18;;;1.80;;
34988;SDS011;21192;40.182;44.516;2023-07-29T05:20:43;8.32;;;1.67;;
34988;SDS011;21192;40.182;44.516;2023-07-29T05:23:09;20.77;;;3.30;;
34988;SDS011;21192;40.182;44.516;2023-07-29T05:25:35;8.95;;;2.45;;
34988;SDS011;21192;40.182;44.516;2023-07-29T05:28:01;9.63;;;1.98;;
34988;SDS011;21192;40.182;44.516;2023-07-29T05:30:28;16.02;;;2.65;;
34988;SDS011;21192;40.182;44.516;2023-07-29T05:32:56;5.95;;;2.13;;
34988;SDS011;21192;40.182;44.516;2023-07-29T05:35:23;13.75;;;2.28;;
34988;SDS011;21192;40.182;44.516;2023-07-29T05:37:49;22.50;;;3.92;;
34988;SDS011;21192;40.182;44.516;2023-07-29T05:40:15;12.88;;;2.88;;
34988;SDS011;21192;40.182;44.516;2023-07-29T05:42:40;28.20;;;2.92;;
34988;SDS011;21192;40.182;44.516;2023-07-29T05:45:07;17.35;;;3.33;;
34988;SDS011;21192;40.182;44.516;2023-07-29T05:47:33;33.88;;;4.75;;
34988;SDS011;21192;40.182;44.516;2023-07-29T05:49:59;13.98;;;2.72;;
34988;SDS011;21192;40.182;44.516;2023-07-29T05:52:29;18.42;;;2.63;;
34988;SDS011;21192;40.182;44.516;2023-07-29T05:54:55;37.40;;;4.88;;
34988;SDS011;21192;40.182;44.516;2023-07-29T05:57:21;16.65;;;4.07;;
34988;SDS011;21192;40.182;44.516;2023-07-29T05:59:47;11.98;;;3.00;;
34988;SDS011;21192;40.182;44.516;2023-07-29T06:02:13;16.85;;;3.05;;
34988;SDS011;21192;40.182;44.516;2023-07-29T06:04:38;17.33;;;3.63;;
34988;SDS011;21192;40.182;44.516;2023-07-29T06:07:05;14.75;;;3.42;;
34988;SDS011;21192;40.182;44.516;2023-07-29T06:09:31;25.23;;;3.95;;
34988;SDS011;21192;40.182;44.516;2023-07-29T06:11:57;17.05;;;4.25;;
34988;SDS011;21192;40.182;44.516;2023-07-29T06:14:23;16.27;;;3.83;;
34988;SDS011;21192;40.182;44.516;2023-07-29T06:16:49;13.80;;;4.78;;
34988;SDS011;21192;40.182;44.516;2023-07-29T06:19:14;21.70;;;4.93;;
34988;SDS011;21192;40.182;44.516;2023-07-29T06:21:40;26.05;;;5.25;;
34988;SDS011;21192;40.182;44.516;2023-07-29T06:24:06;23.60;;;5.32;;
34988;SDS011;21192;40.182;44.516;2023-07-29T06:26:32;14.20;;;4.68;;
34988;SDS011;21192;40.182;44.516;2023-07-29T06:28:58;20.05;;;5.47;;
34988;SDS011;21192;40.182;44.516;2023-07-29T06:31:24;20.23;;;4.93;;
34988;SDS011;21192;40.182;44.516;2023-07-29T06:33:49;27.70;;;9.52;;
34988;SDS011;21192;40.182;44.516;2023-07-29T06:36:15;29.42;;;7.68;;
34988;SDS011;21192;40.182;44.516;2023-07-29T06:38:41;39.25;;;8.82;;
34988;SDS011;21192;40.182;44.516;2023-07-29T06:41:07;17.17;;;5.95;;
34988;SDS011;21192;40.182;44.516;2023-07-29T06:43:33;26.38;;;5.93;;
34988;SDS011;21192;40.182;44.516;2023-07-29T06:45:59;20.30;;;4.85;;
34988;SDS011;21192;40.182;44.516;2023-07-29T06:48:24;18.15;;;5.72;;
34988;SDS011;21192;40.182;44.516;2023-07-29T06:50:50;20.13;;;5.28;;
34988;SDS011;21192;40.182;44.516;2023-07-29T06:53:17;21.27;;;5.97;;
34988;SDS011;21192;40.182;44.516;2023-07-29T06:55:43;32.03;;;7.82;;
34988;SDS011;21192;40.182;44.516;2023-07-29T06:58:10;32.75;;;7.13;;
34988;SDS011;21192;40.182;44.516;2023-07-29T07:00:36;12.98;;;5.07;;
34988;SDS011;21192;40.182;44.516;2023-07-29T07:03:01;16.10;;;6.05;;
34988;SDS011;21192;40.182;44.516;2023-07-29T07:05:27;9.63;;;4.72;;
34988;SDS011;21192;40.182;44.516;2023-07-29T07:07:53;22.35;;;6.80;;
34988;SDS011;21192;40.182;44.516;2023-07-29T07:10:19;71.53;;;11.30;;
34988;SDS011;21192;40.182;44.516;2023-07-29T07:12:45;32.17;;;6.95;;
34988;SDS011;21192;40.182;44.516;2023-07-29T07:15:10;22.92;;;5.72;;
34988;SDS011;21192;40.182;44.516;2023-07-29T07:17:36;16.85;;;5.03;;
34988;SDS011;21192;40.182;44.516;2023-07-29T07:20:02;16.40;;;5.30;;
34988;SDS011;21192;40.182;44.516;2023-07-29T07:22:28;13.75;;;4.25;;
34988;SDS011;21192;40.182;44.516;2023-07-29T07:24:54;68.53;;;11.48;;
34988;SDS011;21192;40.182;44.516;2023-07-29T07:27:20;23.10;;;4.82;;
34988;SDS011;21192;40.182;44.516;2023-07-29T07:29:46;17.48;;;5.25;;
34988;SDS011;21192;40.182;44.516;2023-07-29T07:32:12;13.95;;;4.20;;
34988;SDS011;21192;40.182;44.516;2023-07-29T07:34:38;15.68;;;5.47;;
34988;SDS011;21192;40.182;44.516;2023-07-29T07:37:03;21.48;;;6.00;;
34988;SDS011;21192;40.182;44.516;2023-07-29T07:39:30;25.83;;;6.28;;
34988;SDS011;21192;40.182;44.516;2023-07-29T07:41:57;22.05;;;6.25;;
34988;SDS011;21192;40.182;44.516;2023-07-29T07:44:23;19.10;;;6.15;;
34988;SDS011;21192;40.182;44.516;2023-07-29T07:46:51;16.90;;;5.68;;
34988;SDS011;21192;40.182;44.516;2023-07-29T07:49:18;16.55;;;5.75;;
34988;SDS011;21192;40.182;44.516;2023-07-29T07:51:45;16.08;;;4.90;;
34988;SDS011;21192;40.182;44.516;2023-07-29T07:54:10;17.60;;;5.85;;
34988;SDS011;21192;40.182;44.516;2023-07-29T07:56:36;15.32;;;5.82;;
34988;SDS011;21192;40.182;44.516;2023-07-29T07:59:02;14.77;;;5.15;;
34988;SDS011;21192;40.182;44.516;2023-07-29T08:01:28;24.33;;;7.28;;
34988;SDS011;21192;40.182;44.516;2023-07-29T08:04:00;22.70;;;6.10;;
34988;SDS011;21192;40.182;44.516;2023-07-29T08:06:26;26.30;;;5.90;;
34988;SDS011;21192;40.182;44.516;2023-07-29T08:08:52;16.00;;;5.05;;
34988;SDS011;21192;40.182;44.516;2023-07-29T08:11:18;18.88;;;5.85;;
34988;SDS011;21192;40.182;44.516;2023-07-29T08:13:43;21.05;;;5.15;;
34988;SDS011;21192;40.182;44.516;2023-07-29T08:16:09;21.88;;;6.15;;
34988;SDS011;21192;40.182;44.516;2023-07-29T08:18:35;18.55;;;6.20;;
34988;SDS011;21192;40.182;44.516;2023-07-29T08:21:01;20.00;;;7.03;;
34988;SDS011;21192;40.182;44.516;2023-07-29T08:23:28;17.05;;;5.97;;
34988;SDS011;21192;40.182;44.516;2023-07-29T08:25:55;14.38;;;4.97;;
34988;SDS011;21192;40.182;44.516;2023-07-29T08:28:27;18.02;;;5.30;;
34988;SDS011;21192;40.182;44.516;2023-07-29T08:30:54;8.68;;;4.25;;
34988;SDS011;21192;40.182;44.516;2023-07-29T08:33:21;13.55;;;4.13;;
34988;SDS011;21192;40.182;44.516;2023-07-29T08:35:47;13.88;;;4.70;;
34988;SDS011;21192;40.182;44.516;2023-07-29T08:38:13;17.48;;;5.47;;
34988;SDS011;21192;40.182;44.516;2023-07-29T08:40:42;20.88;;;6.90;;
34988;SDS011;21192;40.182;44.516;2023-07-29T08:43:19;32.53;;;7.13;;
34988;SDS011;21192;40.182;44.516;2023-07-29T08:45:47;33.22;;;6.38;;
34988;SDS011;21192;40.182;44.516;2023-07-29T08:48:13;26.20;;;6.00;;
34988;SDS011;21192;40.182;44.516;2023-07-29T08:50:44;11.50;;;4.07;;
34988;SDS011;21192;40.182;44.516;2023-07-29T08:53:11;12.40;;;4.68;;
34988;SDS011;21192;40.182;44.516;2023-07-29T08:55:38;18.95;;;5.00;;
34988;SDS011;21192;40.182;44.516;2023-07-29T08:58:04;16.42;;;4.82;;
34988;SDS011;21192;40.182;44.516;2023-07-29T09:00:30;15.05;;;4.55;;
34988;SDS011;21192;40.182;44.516;2023-07-29T09:02:57;11.93;;;4.32;;
34988;SDS011;21192;40.182;44.516;2023-07-29T09:05:27;14.15;;;4.38;;
34988;SDS011;21192;40.182;44.516;2023-07-29T09:07:53;17.60;;;4.90;;
34988;SDS011;21192;40.182;44.516;2023-07-29T09:10:21;14.85;;;4.40;;
34988;SDS011;21192;40.182;44.516;2023-07-29T09:12:50;17.13;;;5.18;;
34988;SDS011;21192;40.182;44.516;2023-07-29T09:15:26;29.83;;;6.93;;
34988;SDS011;21192;40.182;44.516;2023-07-29T09:17:53;19.98;;;5.57;;
34988;SDS011;21192;40.182;44.516;2023-07-29T09:20:26;32.97;;;8.10;;
34988;SDS011;21192;40.182;44.516;2023-07-29T09:22:57;26.30;;;6.82;;
34988;SDS011;21192;40.182;44.516;2023-07-29T09:25:25;15.40;;;5.38;;
34988;SDS011;21192;40.182;44.516;2023-07-29T09:28:00;27.67;;;7.80;;
34988;SDS011;21192;40.182;44.516;2023-07-29T09:30:27;25.20;;;7.70;;
34988;SDS011;21192;40.182;44.516;2023-07-29T09:32:56;18.90;;;6.28;;
34988;SDS011;21192;40.182;44.516;2023-07-29T09:35:23;23.75;;;7.35;;
34988;SDS011;21192;40.182;44.516;2023-07-29T09:37:51;23.17;;;5.93;;
34988;SDS011;21192;40.182;44.516;2023-07-29T09:40:17;21.05;;;6.80;;
34988;SDS011;21192;40.182;44.516;2023-07-29T09:42:47;15.45;;;5.90;;
34988;SDS011;21192;40.182;44.516;2023-07-29T09:47:48;21.75;;;6.15;;
34988;SDS011;21192;40.182;44.516;2023-07-29T09:50:15;18.52;;;7.05;;
34988;SDS011;21192;40.182;44.516;2023-07-29T09:52:41;19.45;;;6.03;;
34988;SDS011;21192;40.182;44.516;2023-07-29T09:55:09;25.23;;;7.85;;
34988;SDS011;21192;40.182;44.516;2023-07-29T09:57:37;22.98;;;7.22;;
34988;SDS011;21192;40.182;44.516;2023-07-29T10:00:04;27.73;;;7.15;;
34988;SDS011;21192;40.182;44.516;2023-07-29T10:02:36;19.02;;;7.18;;
34988;SDS011;21192;40.182;44.516;2023-07-29T10:05:03;17.00;;;5.50;;
34988;SDS011;21192;40.182;44.516;2023-07-29T10:07:29;21.17;;;6.35;;
34988;SDS011;21192;40.182;44.516;2023-07-29T10:09:56;16.05;;;6.03;;
34988;SDS011;21192;40.182;44.516;2023-07-29T10:12:24;19.17;;;6.55;;
34988;SDS011;21192;40.182;44.516;2023-07-29T10:14:51;18.30;;;6.68;;
34988;SDS011;21192;40.182;44.516;2023-07-29T10:17:18;24.85;;;8.25;;
34988;SDS011;21192;40.182;44.516;2023-07-29T10:19:46;24.55;;;7.00;;
34988;SDS011;21192;40.182;44.516;2023-07-29T10:22:12;22.60;;;7.85;;
34988;SDS011;21192;40.182;44.516;2023-07-29T10:24:42;24.40;;;9.27;;
34988;SDS011;21192;40.182;44.516;2023-07-29T10:27:09;24.05;;;8.85;;
34988;SDS011;21192;40.182;44.516;2023-07-29T10:29:38;22.60;;;8.10;;
34988;SDS011;21192;40.182;44.516;2023-07-29T10:32:08;31.20;;;8.13;;
34988;SDS011;21192;40.182;44.516;2023-07-29T10:34:36;20.60;;;6.57;;
34988;SDS011;21192;40.182;44.516;2023-07-29T10:37:02;21.85;;;6.85;;
34988;SDS011;21192;40.182;44.516;2023-07-29T10:39:32;28.27;;;8.20;;
34988;SDS011;21192;40.182;44.516;2023-07-29T10:42:06;17.83;;;6.13;;
34988;SDS011;21192;40.182;44.516;2023-07-29T10:47:26;53.35;;;10.77;;
34988;SDS011;21192;40.182;44.516;2023-07-29T10:49:57;44.88;;;10.10;;
34988;SDS011;21192;40.182;44.516;2023-07-29T10:52:28;23.48;;;7.22;;
34988;SDS011;21192;40.182;44.516;2023-07-29T10:54:56;29.92;;;8.07;;
34988;SDS011;21192;40.182;44.516;2023-07-29T10:57:36;37.42;;;8.50;;
34988;SDS011;21192;40.182;44.516;2023-07-29T11:00:05;22.98;;;6.68;;
34988;SDS011;21192;40.182;44.516;2023-07-29T11:02:32;23.13;;;6.45;;
34988;SDS011;21192;40.182;44.516;2023-07-29T11:05:05;33.05;;;7.32;;
34988;SDS011;21192;40.182;44.516;2023-07-29T11:07:47;51.38;;;9.20;;
34988;SDS011;21192;40.182;44.516;2023-07-29T11:10:14;43.15;;;8.95;;
34988;SDS011;21192;40.182;44.516;2023-07-29T11:17:40;26.77;;;8.80;;
34988;SDS011;21192;40.182;44.516;2023-07-29T11:20:06;38.17;;;9.13;;
34988;SDS011;21192;40.182;44.516;2023-07-29T11:22:33;37.28;;;10.55;;
34988;SDS011;21192;40.182;44.516;2023-07-29T11:24:59;28.45;;;7.47;;
34988;SDS011;21192;40.182;44.516;2023-07-29T11:27:25;22.40;;;5.55;;
34988;SDS011;21192;40.182;44.516;2023-07-29T11:29:56;40.25;;;9.60;;
34988;SDS011;21192;40.182;44.516;2023-07-29T11:32:23;24.20;;;7.75;;
34988;SDS011;21192;40.182;44.516;2023-07-29T11:34:50;22.90;;;6.78;;
34988;SDS011;21192;40.182;44.516;2023-07-29T11:37:16;27.23;;;9.55;;
34988;SDS011;21192;40.182;44.516;2023-07-29T11:39:44;25.42;;;8.00;;
34988;SDS011;21192;40.182;44.516;2023-07-29T11:42:10;46.40;;;8.48;;
34988;SDS011;21192;40.182;44.516;2023-07-29T11:44:36;26.83;;;6.22;;
34988;SDS011;21192;40.182;44.516;2023-07-29T11:47:06;40.17;;;9.75;;
34988;SDS011;21192;40.182;44.516;2023-07-29T11:49:35;31.05;;;8.05;;
34988;SDS011;21192;40.182;44.516;2023-07-29T11:52:03;26.42;;;7.70;;
34988;SDS011;21192;40.182;44.516;2023-07-29T11:54:31;35.10;;;7.95;;
34988;SDS011;21192;40.182;44.516;2023-07-29T11:56:57;37.78;;;8.43;;
34988;SDS011;21192;40.182;44.516;2023-07-29T11:59:23;26.30;;;6.97;;
34988;SDS011;21192;40.182;44.516;2023-07-29T12:01:48;35.20;;;9.85;;
34988;SDS011;21192;40.182;44.516;2023-07-29T12:04:14;40.75;;;9.15;;
34988;SDS011;21192;40.182;44.516;2023-07-29T12:06:41;50.10;;;10.45;;
34988;SDS011;21192;40.182;44.516;2023-07-29T12:09:08;49.63;;;10.30;;
34988;SDS011;21192;40.182;44.516;2023-07-29T12:11:34;32.45;;;7.63;;
34988;SDS011;21192;40.182;44.516;2023-07-29T12:14:00;39.70;;;9.85;;
34988;SDS011;21192;40.182;44.516;2023-07-29T12:16:26;29.35;;;7.03;;
34988;SDS011;21192;40.182;44.516;2023-07-29T12:18:52;26.55;;;7.53;;
34988;SDS011;21192;40.182;44.516;2023-07-29T12:21:18;15.75;;;5.97;;
34988;SDS011;21192;40.182;44.516;2023-07-29T12:23:44;42.72;;;9.82;;
34988;SDS011;21192;40.182;44.516;2023-07-29T12:26:10;29.60;;;7.47;;
34988;SDS011;21192;40.182;44.516;2023-07-29T12:28:36;48.30;;;10.15;;
34988;SDS011;21192;40.182;44.516;2023-07-29T12:31:06;34.97;;;9.70;;
34988;SDS011;21192;40.182;44.516;2023-07-29T12:33:34;20.17;;;6.75;;
34988;SDS011;21192;40.182;44.516;2023-07-29T12:36:04;39.80;;;10.70;;
34988;SDS011;21192;40.182;44.516;2023-07-29T12:38:30;55.40;;;12.50;;
34988;SDS011;21192;40.182;44.516;2023-07-29T12:40:56;82.25;;;15.98;;
34988;SDS011;21192;40.182;44.516;2023-07-29T12:43:22;21.73;;;7.35;;
34988;SDS011;21192;40.182;44.516;2023-07-29T12:45:51;21.50;;;6.68;;
34988;SDS011;21192;40.182;44.516;2023-07-29T12:48:17;31.35;;;8.25;;
34988;SDS011;21192;40.182;44.516;2023-07-29T12:50:43;38.50;;;9.90;;
34988;SDS011;21192;40.182;44.516;2023-07-29T12:53:09;38.45;;;10.10;;
34988;SDS011;21192;40.182;44.516;2023-07-29T12:55:38;18.83;;;6.15;;
34988;SDS011;21192;40.182;44.516;2023-07-29T12:58:03;31.42;;;9.43;;
34988;SDS011;21192;40.182;44.516;2023-07-29T13:00:29;20.73;;;6.55;;
34988;SDS011;21192;40.182;44.516;2023-07-29T13:02:55;38.70;;;9.73;;
34988;SDS011;21192;40.182;44.516;2023-07-29T13:05:21;23.55;;;7.97;;
34988;SDS011;21192;40.182;44.516;2023-07-29T13:07:47;23.65;;;8.27;;
34988;SDS011;21192;40.182;44.516;2023-07-29T13:10:13;29.45;;;8.13;;
34988;SDS011;21192;40.182;44.516;2023-07-29T13:12:39;30.35;;;10.35;;
34988;SDS011;21192;40.182;44.516;2023-07-29T13:15:05;24.80;;;9.32;;
34988;SDS011;21192;40.182;44.516;2023-07-29T13:17:35;36.83;;;11.40;;
34988;SDS011;21192;40.182;44.516;2023-07-29T13:20:02;35.92;;;9.30;;
34988;SDS011;21192;40.182;44.516;2023-07-29T13:22:28;46.67;;;10.38;;
34988;SDS011;21192;40.182;44.516;2023-07-29T13:24:54;25.30;;;9.70;;
34988;SDS011;21192;40.182;44.516;2023-07-29T13:27:20;16.27;;;6.78;;
34988;SDS011;21192;40.182;44.516;2023-07-29T13:29:46;34.65;;;8.95;;
34988;SDS011;21192;40.182;44.516;2023-07-29T13:32:12;62.33;;;14.43;;
34988;SDS011;21192;40.182;44.516;2023-07-29T13:34:37;25.10;;;8.10;;
34988;SDS011;21192;40.182;44.516;2023-07-29T13:37:05;35.47;;;9.98;;
34988;SDS011;21192;40.182;44.516;2023-07-29T13:39:31;33.10;;;9.75;;
34988;SDS011;21192;40.182;44.516;2023-07-29T13:41:56;16.65;;;8.82;;
34988;SDS011;21192;40.182;44.516;2023-07-29T13:44:22;17.42;;;7.78;;
34988;SDS011;21192;40.182;44.516;2023-07-29T13:46:48;36.78;;;10.40;;
34988;SDS011;21192;40.182;44.516;2023-07-29T13:49:14;39.08;;;11.13;;
34988;SDS011;21192;40.182;44.516;2023-07-29T13:51:40;33.53;;;10.32;;
34988;SDS011;21192;40.182;44.516;2023-07-29T13:54:07;23.20;;;7.15;;
34988;SDS011;21192;40.182;44.516;2023-07-29T13:56:33;18.92;;;8.07;;
34988;SDS011;21192;40.182;44.516;2023-07-29T13:58:59;21.05;;;7.63;;
34988;SDS011;21192;40.182;44.516;2023-07-29T14:01:25;25.17;;;8.02;;
34988;SDS011;21192;40.182;44.516;2023-07-29T14:03:51;29.05;;;10.43;;
34988;SDS011;21192;40.182;44.516;2023-07-29T14:06:16;34.33;;;10.88;;
34988;SDS011;21192;40.182;44.516;2023-07-29T14:08:42;32.28;;;13.35;;
34988;SDS011;21192;40.182;44.516;2023-07-29T14:11:08;28.83;;;12.10;;
34988;SDS011;21192;40.182;44.516;2023-07-29T14:13:34;35.88;;;14.35;;
34988;SDS011;21192;40.182;44.516;2023-07-29T14:16:01;43.03;;;18.63;;
34988;SDS011;21192;40.182;44.516;2023-07-29T14:18:27;37.47;;;16.80;;
34988;SDS011;21192;40.182;44.516;2023-07-29T14:20:53;31.40;;;18.73;;
34988;SDS011;21192;40.182;44.516;2023-07-29T14:23:19;38.65;;;18.75;;
34988;SDS011;21192;40.182;44.516;2023-07-29T14:25:45;33.65;;;18.95;;
34988;SDS011;21192;40.182;44.516;2023-07-29T14:28:12;32.17;;;18.25;;
34988;SDS011;21192;40.182;44.516;2023-07-29T14:30:39;44.05;;;19.60;;
34988;SDS011;21192;40.182;44.516;2023-07-29T14:33:06;37.13;;;17.58;;
34988;SDS011;21192;40.182;44.516;2023-07-29T14:35:32;30.73;;;17.25;;
34988;SDS011;21192;40.182;44.516;2023-07-29T14:37:58;40.13;;;18.45;;
34988;SDS011;21192;40.182;44.516;2023-07-29T14:40:24;45.05;;;18.05;;